createdAt,value
2018-01-11T00:00:06.745Z,4.90
2018-01-11T00:02:35.019Z,4.90
2018-01-11T00:05:03.299Z,4.90
2018-01-11T00:07:31.581Z,4.90
2018-01-11T00:10:00.658Z,4.90
2018-01-11T00:12:28.879Z,4.90
2018-01-11T00:14:57.153Z,4.90
2018-01-11T00:17:25.428Z,4.80
2018-01-11T00:19:54.470Z,4.80
2018-01-11T00:22:22.752Z,4.80
2018-01-11T00:24:50.974Z,4.70
2018-01-11T00:27:19.272Z,4.70
2018-01-11T00:29:47.567Z,4.60
2018-01-11T00:32:15.805Z,4.60
2018-01-11T00:34:44.045Z,4.60
2018-01-11T00:37:12.311Z,4.60
2018-01-11T00:39:40.667Z,4.50
2018-01-11T00:42:08.981Z,4.40
2018-01-11T00:44:37.279Z,4.30
2018-01-11T00:47:05.589Z,4.30
2018-01-11T00:49:33.919Z,4.40
2018-01-11T00:52:02.204Z,4.30
2018-01-11T00:54:30.498Z,4.30
2018-01-11T00:56:59.502Z,4.40
2018-01-11T00:59:27.769Z,4.30
2018-01-11T01:01:56.017Z,4.40
2018-01-11T01:04:24.248Z,4.40
2018-01-11T01:06:52.538Z,4.40
2018-01-11T01:09:20.811Z,4.40
2018-01-11T01:11:49.125Z,4.40
2018-01-11T01:14:18.657Z,4.40
2018-01-11T01:16:47.695Z,4.40
2018-01-11T01:19:15.980Z,4.40
2018-01-11T01:21:44.255Z,4.40
2018-01-11T01:24:12.551Z,4.40
2018-01-11T01:26:40.778Z,4.40
2018-01-11T01:29:09.088Z,4.40
2018-01-11T01:31:37.329Z,4.40
2018-01-11T01:34:05.622Z,4.30
2018-01-11T01:36:33.870Z,4.30
2018-01-11T01:39:02.162Z,4.30
2018-01-11T01:41:30.425Z,4.30
2018-01-11T01:43:59.430Z,4.30
2018-01-11T01:46:27.754Z,4.20
2018-01-11T01:48:55.990Z,4.20
2018-01-11T01:51:24.240Z,4.20
2018-01-11T01:53:53.312Z,4.20
2018-01-11T01:56:21.546Z,4.20
2018-01-11T01:58:49.863Z,4.20
2018-01-11T02:01:18.101Z,4.10
2018-01-11T02:03:46.337Z,4.10
2018-01-11T02:06:15.361Z,4.10
2018-01-11T02:08:43.608Z,4.10
2018-01-11T02:11:11.885Z,4.10
2018-01-11T02:13:40.904Z,4.10
2018-01-11T02:16:09.146Z,4.00
2018-01-11T02:18:37.447Z,4.10
2018-01-11T02:21:06.458Z,4.00
2018-01-11T02:23:34.733Z,4.00
2018-01-11T02:26:03.009Z,4.00
2018-01-11T02:28:31.262Z,4.00
2018-01-11T02:31:00.280Z,4.00
2018-01-11T02:33:28.528Z,4.00
2018-01-11T02:35:56.858Z,4.00
2018-01-11T02:38:25.131Z,4.00
2018-01-11T02:40:53.407Z,4.00
2018-01-11T02:43:21.710Z,4.10
2018-01-11T02:45:49.959Z,4.00
2018-01-11T02:48:18.210Z,4.00
2018-01-11T02:50:46.452Z,4.00
2018-01-11T02:53:14.773Z,4.00
2018-01-11T02:55:43.009Z,4.00
2018-01-11T02:58:11.307Z,4.10
2018-01-11T03:00:40.360Z,4.10
2018-01-11T03:03:08.616Z,4.00
2018-01-11T03:05:36.936Z,4.00
2018-01-11T03:08:05.177Z,4.00
2018-01-11T03:10:33.416Z,3.90
2018-01-11T03:13:02.439Z,4.00
2018-01-11T03:15:30.687Z,3.90
2018-01-11T03:17:59.774Z,3.90
2018-01-11T03:20:28.770Z,3.90
2018-01-11T03:22:57.792Z,3.90
2018-01-11T03:25:26.044Z,4.00
2018-01-11T03:27:55.092Z,4.00
2018-01-11T03:30:23.351Z,4.00
2018-01-11T03:32:51.639Z,3.90
2018-01-11T03:35:19.926Z,3.90
2018-01-11T03:37:48.190Z,3.90
2018-01-11T03:40:16.441Z,3.90
2018-01-11T03:42:44.703Z,4.00
2018-01-11T03:45:13.708Z,3.90
2018-01-11T03:47:41.977Z,3.90
2018-01-11T03:50:11.017Z,3.90
2018-01-11T03:52:39.289Z,3.90
2018-01-11T03:55:07.575Z,3.80
2018-01-11T03:57:35.813Z,3.80
2018-01-11T04:00:04.119Z,3.80
2018-01-11T04:02:32.400Z,3.70
2018-01-11T04:05:00.682Z,3.70
2018-01-11T04:07:28.921Z,3.70
2018-01-11T04:09:57.210Z,3.70
2018-01-11T04:12:25.456Z,3.60
2018-01-11T04:14:54.457Z,3.60
2018-01-11T04:17:23.526Z,3.60
2018-01-11T04:19:51.791Z,3.60
2018-01-11T04:22:20.056Z,3.60
2018-01-11T04:24:48.338Z,3.60
2018-01-11T04:27:16.586Z,3.60
2018-01-11T04:29:44.843Z,3.60
2018-01-11T04:32:13.126Z,3.50
2018-01-11T04:34:41.379Z,3.40
2018-01-11T04:37:10.395Z,3.40
2018-01-11T04:39:38.679Z,3.40
2018-01-11T04:42:06.944Z,3.40
2018-01-11T04:44:35.948Z,3.40
2018-01-11T04:47:04.251Z,3.30
2018-01-11T04:49:32.532Z,3.40
2018-01-11T04:52:00.803Z,3.40
2018-01-11T04:54:29.083Z,3.30
2018-01-11T04:56:57.356Z,3.30
2018-01-11T04:59:25.641Z,3.30
2018-01-11T05:01:53.869Z,3.40
2018-01-11T05:04:22.920Z,3.40
2018-01-11T05:06:51.218Z,3.40
2018-01-11T05:09:19.444Z,3.40
2018-01-11T05:11:47.745Z,3.40
2018-01-11T05:14:15.982Z,3.50
2018-01-11T05:16:44.297Z,3.60
2018-01-11T05:19:12.576Z,3.60
2018-01-11T05:21:40.807Z,3.60
2018-01-11T05:24:09.862Z,3.70
2018-01-11T05:26:38.147Z,3.70
2018-01-11T05:29:06.476Z,3.80
2018-01-11T05:31:40.779Z,3.80
2018-01-11T05:34:09.833Z,3.90
2018-01-11T05:36:38.067Z,3.90
2018-01-11T05:39:06.350Z,3.90
2018-01-11T05:41:34.596Z,3.90
2018-01-11T05:44:03.644Z,4.10
2018-01-11T05:46:31.925Z,4.10
2018-01-11T05:49:00.197Z,4.10
2018-01-11T05:51:28.518Z,4.10
2018-01-11T05:53:57.536Z,4.10
2018-01-11T05:56:25.784Z,4.10
2018-01-11T05:58:54.804Z,4.20
2018-01-11T06:01:23.083Z,4.20
2018-01-11T06:03:51.352Z,4.20
2018-01-11T06:06:19.599Z,4.30
2018-01-11T06:08:47.856Z,4.30
2018-01-11T06:11:16.105Z,4.30
2018-01-11T06:13:44.395Z,4.30
2018-01-11T06:16:12.691Z,4.30
2018-01-11T06:18:40.973Z,4.30
2018-01-11T06:21:09.196Z,4.40
2018-01-11T06:23:37.492Z,4.40
2018-01-11T06:26:05.776Z,4.40
2018-01-11T06:28:34.081Z,4.40
2018-01-11T06:31:03.101Z,4.50
2018-01-11T06:33:32.149Z,4.50
2018-01-11T06:36:00.444Z,4.50
2018-01-11T06:38:28.728Z,4.60
2018-01-11T06:40:56.967Z,4.60
2018-01-11T06:43:25.212Z,4.60
2018-01-11T06:45:54.262Z,4.70
2018-01-11T06:48:22.505Z,4.60
2018-01-11T06:50:50.785Z,4.70
2018-01-11T06:53:19.025Z,4.70
2018-01-11T06:55:48.020Z,4.70
2018-01-11T06:58:17.082Z,4.70
2018-01-11T07:00:45.358Z,4.70
2018-01-11T07:03:13.633Z,4.70
2018-01-11T07:05:41.929Z,4.80
2018-01-11T07:08:11.359Z,4.90
2018-01-11T07:10:40.396Z,4.90
2018-01-11T07:13:08.644Z,4.90
2018-01-11T07:15:37.673Z,4.90
2018-01-11T07:18:06.681Z,4.90
2018-01-11T07:20:34.973Z,4.90
2018-01-11T07:23:03.215Z,4.90
2018-01-11T07:25:31.501Z,5.00
2018-01-11T07:27:59.741Z,5.00
2018-01-11T07:30:28.023Z,5.00
2018-01-11T07:32:56.325Z,5.00
2018-01-11T07:35:24.595Z,5.00
2018-01-11T07:37:52.871Z,5.00
2018-01-11T07:40:21.114Z,5.00
2018-01-11T07:42:50.105Z,5.10
2018-01-11T07:45:19.144Z,5.10
2018-01-11T07:47:47.411Z,5.10
2018-01-11T07:50:15.633Z,5.10
2018-01-11T07:52:43.945Z,5.20
2018-01-11T07:55:12.983Z,5.30
2018-01-11T07:57:41.251Z,5.30
2018-01-11T08:00:09.528Z,5.30
2018-01-11T08:02:37.758Z,5.40
2018-01-11T08:05:06.780Z,5.40
2018-01-11T08:07:35.059Z,5.40
2018-01-11T08:10:03.321Z,5.40
2018-01-11T08:12:31.608Z,5.40
2018-01-11T08:14:59.872Z,5.40
2018-01-11T08:17:28.137Z,5.40
2018-01-11T08:19:57.172Z,5.40
2018-01-11T08:22:25.472Z,5.40
2018-01-11T08:24:53.753Z,5.50
2018-01-11T08:27:21.989Z,5.50
2018-01-11T08:29:50.285Z,5.50
2018-01-11T08:32:18.565Z,5.50
2018-01-11T08:34:46.804Z,5.50
2018-01-11T08:37:15.052Z,5.50
2018-01-11T08:39:43.320Z,5.50
2018-01-11T08:42:11.573Z,5.50
2018-01-11T08:44:39.851Z,5.60
2018-01-11T08:47:08.152Z,5.60
2018-01-11T08:49:37.161Z,5.60
2018-01-11T08:52:06.235Z,5.60
2018-01-11T08:54:35.067Z,5.60
2018-01-11T08:57:04.068Z,5.60
2018-01-11T08:59:32.369Z,5.60
2018-01-11T09:02:00.610Z,5.70
2018-01-11T09:04:29.668Z,5.70
2018-01-11T09:06:57.900Z,5.70
2018-01-11T09:09:26.231Z,5.70
2018-01-11T09:11:54.458Z,5.80
2018-01-11T09:14:22.704Z,5.80
2018-01-11T09:16:51.721Z,5.90
2018-01-11T09:19:19.960Z,5.80
2018-01-11T09:21:48.318Z,5.90
2018-01-11T09:24:16.586Z,6.00
2018-01-11T09:26:44.829Z,6.00
2018-01-11T09:29:13.144Z,6.00
2018-01-11T09:31:42.180Z,6.10
2018-01-11T09:34:11.260Z,6.10
2018-01-11T09:36:39.540Z,6.10
2018-01-11T09:39:07.818Z,6.20
2018-01-11T09:41:36.066Z,6.20
2018-01-11T09:44:04.304Z,6.20
2018-01-11T09:46:32.610Z,6.20
2018-01-11T09:49:00.844Z,6.30
2018-01-11T09:51:29.878Z,6.40
2018-01-11T09:53:58.175Z,6.40
2018-01-11T09:56:27.222Z,6.40
2018-01-11T09:58:56.268Z,6.50
2018-01-11T10:01:24.507Z,6.40
2018-01-11T10:03:52.804Z,6.50
2018-01-11T10:06:21.031Z,6.50
2018-01-11T10:08:50.079Z,6.60
2018-01-11T10:11:18.392Z,6.60
2018-01-11T10:13:46.662Z,6.60
2018-01-11T10:16:14.932Z,6.60
2018-01-11T10:18:43.164Z,6.70
2018-01-11T10:21:11.497Z,6.70
2018-01-11T10:23:39.720Z,6.80
2018-01-11T10:26:08.002Z,6.80
2018-01-11T10:28:36.292Z,6.80
2018-01-11T10:31:04.517Z,6.90
2018-01-11T10:33:33.550Z,6.80
2018-01-11T10:36:01.827Z,6.90
2018-01-11T10:38:30.113Z,6.80
2018-01-11T10:40:58.374Z,6.80
2018-01-11T10:43:26.652Z,6.90
2018-01-11T10:45:54.900Z,6.90
2018-01-11T10:48:23.916Z,6.90
2018-01-11T10:50:52.203Z,6.90
2018-01-11T10:53:20.466Z,6.90
2018-01-11T10:55:48.740Z,6.90
2018-01-11T10:58:17.021Z,6.90
2018-01-11T11:03:42.922Z,6.90
2018-01-11T11:06:11.232Z,6.90
2018-01-11T11:08:40.278Z,6.90
2018-01-11T11:11:08.561Z,6.90
2018-01-11T11:13:37.204Z,7.00
2018-01-11T11:16:05.476Z,7.00
2018-01-11T11:18:33.778Z,7.00
2018-01-11T11:21:02.060Z,7.00
2018-01-11T11:23:30.334Z,7.00
2018-01-11T11:25:59.462Z,7.10
2018-01-11T11:28:27.696Z,7.10
2018-01-11T11:30:55.956Z,7.20
2018-01-11T11:33:24.240Z,7.20
2018-01-11T11:35:52.565Z,7.20
2018-01-11T11:38:20.817Z,7.20
2018-01-11T11:40:49.050Z,7.20
2018-01-11T11:43:18.112Z,7.30
2018-01-11T11:45:46.389Z,7.30
2018-01-11T11:48:14.652Z,7.30
2018-01-11T11:50:42.888Z,7.40
2018-01-11T11:53:11.164Z,7.40
2018-01-11T11:55:40.402Z,7.40
2018-01-11T11:58:08.676Z,7.50
2018-01-11T12:00:36.976Z,7.50
2018-01-11T12:03:05.252Z,7.50
2018-01-11T12:05:33.559Z,7.60
2018-01-11T12:08:02.586Z,7.60
2018-01-11T12:10:30.816Z,7.60
2018-01-11T12:12:59.064Z,7.60
2018-01-11T12:15:27.374Z,7.70
2018-01-11T12:17:55.644Z,7.70
2018-01-11T12:20:23.925Z,7.70
2018-01-11T12:22:52.199Z,7.80
2018-01-11T12:25:20.483Z,7.70
2018-01-11T12:27:48.751Z,7.80
2018-01-11T12:30:17.060Z,7.80
2018-01-11T12:32:46.096Z,7.80
2018-01-11T12:35:14.360Z,7.80
2018-01-11T12:37:42.625Z,7.80
2018-01-11T12:40:10.909Z,7.80
2018-01-11T12:42:39.198Z,7.80
2018-01-11T12:45:07.415Z,7.90
2018-01-11T12:47:36.482Z,7.90
2018-01-11T12:50:04.780Z,7.90
2018-01-11T12:52:33.062Z,7.90
2018-01-11T12:55:02.111Z,7.90
2018-01-11T12:57:30.384Z,7.90
2018-01-11T12:59:58.681Z,7.90
2018-01-11T13:02:26.920Z,7.90
2018-01-11T13:04:55.217Z,7.90
2018-01-11T13:07:23.444Z,7.90
2018-01-11T13:09:52.528Z,7.90
2018-01-11T13:12:20.797Z,7.90
2018-01-11T13:14:49.012Z,7.90
2018-01-11T13:17:17.312Z,7.90
2018-01-11T13:19:45.553Z,8.00
2018-01-11T13:22:14.611Z,8.00
2018-01-11T13:24:43.185Z,8.00
2018-01-11T13:27:11.488Z,8.00
2018-01-11T13:29:39.766Z,8.00
2018-01-11T13:32:08.829Z,8.00
2018-01-11T13:34:37.115Z,8.00
2018-01-11T13:37:05.395Z,8.00
2018-01-11T13:39:33.657Z,8.00
2018-01-11T13:42:01.877Z,8.00
2018-01-11T13:44:30.148Z,8.00
2018-01-11T13:46:58.438Z,8.00
2018-01-11T13:49:26.666Z,8.00
2018-01-11T13:51:54.921Z,8.00
2018-01-11T13:54:23.199Z,8.00
2018-01-11T13:56:51.480Z,8.00
2018-01-11T13:59:19.743Z,8.00
2018-01-11T14:01:48.803Z,8.00
2018-01-11T14:04:17.089Z,8.00
2018-01-11T14:06:45.374Z,8.10
2018-01-11T14:09:13.684Z,8.10
2018-01-11T14:11:41.928Z,8.00
2018-01-11T14:14:10.196Z,8.00
2018-01-11T14:16:39.252Z,8.00
2018-01-11T14:19:07.533Z,8.00
2018-01-11T14:21:35.773Z,8.00
2018-01-11T14:24:04.074Z,8.00
2018-01-11T14:26:32.316Z,8.00
2018-01-11T14:29:01.342Z,8.00
2018-01-11T14:31:29.691Z,8.00
2018-01-11T14:33:58.693Z,8.00
2018-01-11T14:36:27.701Z,8.00
2018-01-11T14:38:55.987Z,8.00
2018-01-11T14:41:24.228Z,8.00
2018-01-11T14:43:53.292Z,8.00
2018-01-11T14:46:21.524Z,8.00
2018-01-11T14:48:49.792Z,7.90
2018-01-11T14:51:18.081Z,7.90
2018-01-11T14:53:46.312Z,7.90
2018-01-11T14:56:14.556Z,7.90
2018-01-11T14:58:42.797Z,7.90
2018-01-11T15:01:11.069Z,7.90
2018-01-11T15:03:39.305Z,7.90
2018-01-11T15:06:07.529Z,7.90
2018-01-11T15:08:35.827Z,7.90
2018-01-11T15:11:04.073Z,7.90
2018-01-11T15:13:33.120Z,7.90
2018-01-11T15:16:01.403Z,7.90
2018-01-11T15:18:29.649Z,7.90
2018-01-11T15:20:57.894Z,7.90
2018-01-11T15:23:26.931Z,7.90
2018-01-11T15:25:55.165Z,7.90
2018-01-11T15:28:24.209Z,7.80
2018-01-11T15:30:52.464Z,7.90
2018-01-11T15:33:20.740Z,7.90
2018-01-11T15:35:49.015Z,7.90
2018-01-11T15:38:17.240Z,7.80
2018-01-11T15:40:45.542Z,7.80
2018-01-11T15:43:13.783Z,7.80
2018-01-11T15:45:42.064Z,7.80
2018-01-11T15:48:10.377Z,7.70
2018-01-11T15:50:39.369Z,7.70
2018-01-11T15:53:08.393Z,7.70
2018-01-11T15:55:36.643Z,7.70
2018-01-11T15:58:05.648Z,7.70
2018-01-11T16:00:33.920Z,7.70
2018-01-11T16:03:02.212Z,7.70
2018-01-11T16:05:30.454Z,7.70
2018-01-11T16:07:58.702Z,7.60
2018-01-11T16:10:26.994Z,7.60
2018-01-11T16:12:55.240Z,7.60
2018-01-11T16:15:23.477Z,7.60
2018-01-11T16:17:52.533Z,7.60
2018-01-11T16:20:20.821Z,7.50
2018-01-11T16:22:49.095Z,7.50
2018-01-11T16:25:17.377Z,7.50
2018-01-11T16:27:45.613Z,7.50
2018-01-11T16:30:13.918Z,7.50
2018-01-11T16:32:42.500Z,7.50
2018-01-11T16:35:10.807Z,7.50
2018-01-11T16:37:39.807Z,7.40
2018-01-11T16:40:08.821Z,7.40
2018-01-11T16:42:37.093Z,7.40
2018-01-11T16:45:06.085Z,7.40
2018-01-11T16:47:34.353Z,7.40
2018-01-11T16:50:04.084Z,7.40
2018-01-11T16:52:32.358Z,7.40
2018-01-11T16:55:00.613Z,7.40
2018-01-11T16:57:29.667Z,7.30
2018-01-11T16:59:57.934Z,7.30
2018-01-11T17:02:26.237Z,7.30
2018-01-11T17:04:54.452Z,7.30
2018-01-11T17:07:22.744Z,7.40
2018-01-11T17:09:50.983Z,7.30
2018-01-11T17:12:19.292Z,7.30
2018-01-11T17:14:47.517Z,7.30
2018-01-11T17:17:15.753Z,7.20
2018-01-11T17:19:44.009Z,7.20
2018-01-11T17:22:12.265Z,7.20
2018-01-11T17:24:40.568Z,7.10
2018-01-11T17:27:08.812Z,7.20
2018-01-11T17:29:37.131Z,7.10
2018-01-11T17:32:05.418Z,7.20
2018-01-11T17:34:33.695Z,7.20
2018-01-11T17:37:01.995Z,7.20
2018-01-11T17:39:31.090Z,7.20
2018-01-11T17:41:59.399Z,7.20
2018-01-11T17:44:27.645Z,7.20
2018-01-11T17:46:55.930Z,7.20
2018-01-11T17:49:24.266Z,7.20
2018-01-11T17:51:53.245Z,7.20
2018-01-11T17:54:22.288Z,7.20
2018-01-11T17:56:50.563Z,7.20
2018-01-11T17:59:18.797Z,7.10
2018-01-11T18:01:47.105Z,7.20
2018-01-11T18:04:15.337Z,7.10
2018-01-11T18:06:44.445Z,7.20
2018-01-11T18:09:13.490Z,7.20
2018-01-11T18:11:41.717Z,7.20
2018-01-11T18:14:09.981Z,7.20
2018-01-11T18:16:39.043Z,7.20
2018-01-11T18:19:07.305Z,7.20
2018-01-11T18:21:35.641Z,7.10
2018-01-11T18:24:04.784Z,7.10
2018-01-11T18:26:33.033Z,7.10
2018-01-11T18:29:01.315Z,7.20
2018-01-11T18:31:29.593Z,7.10
2018-01-11T18:33:57.916Z,7.10
2018-01-11T18:36:26.241Z,7.20
2018-01-11T18:38:55.301Z,7.20
2018-01-11T18:41:23.575Z,7.20
2018-01-11T18:43:51.896Z,7.20
2018-01-11T18:46:20.993Z,7.20
2018-01-11T18:48:49.228Z,7.20
2018-01-11T18:51:17.538Z,7.20
2018-01-11T18:53:46.560Z,7.20
2018-01-11T18:56:14.920Z,7.20
2018-01-11T18:58:43.658Z,7.20
2018-01-11T19:01:11.910Z,7.20
2018-01-11T19:03:40.200Z,7.20
2018-01-11T19:06:08.425Z,7.20
2018-01-11T19:08:36.767Z,7.20
2018-01-11T19:11:04.992Z,7.10
2018-01-11T19:13:33.253Z,7.10
2018-01-11T19:16:01.551Z,7.10
2018-01-11T19:18:29.782Z,7.20
2018-01-11T19:20:58.059Z,7.20
2018-01-11T19:23:26.280Z,7.20
2018-01-11T19:25:54.560Z,7.10
2018-01-11T19:28:22.888Z,7.10
2018-01-11T19:30:51.163Z,7.10
2018-01-11T19:33:19.430Z,7.10
2018-01-11T19:35:47.657Z,7.20
2018-01-11T19:38:15.908Z,7.10
2018-01-11T19:40:44.983Z,7.10
2018-01-11T19:43:13.218Z,7.10
2018-01-11T19:45:42.018Z,7.10
2018-01-11T19:48:10.258Z,7.10
2018-01-11T19:50:38.511Z,7.10
2018-01-11T19:53:08.411Z,7.10
2018-01-11T19:55:36.958Z,7.10
2018-01-11T19:58:05.276Z,7.10
2018-01-11T20:00:33.525Z,7.00
2018-01-11T20:03:01.844Z,7.00
2018-01-11T20:05:30.114Z,7.00
2018-01-11T20:07:58.414Z,7.00
2018-01-11T20:10:27.472Z,7.00
2018-01-11T20:12:55.763Z,7.00
2018-01-11T20:15:24.004Z,7.00
2018-01-11T20:17:52.308Z,7.00
2018-01-11T20:20:20.540Z,7.00
2018-01-11T20:22:48.829Z,7.00
2018-01-11T20:25:17.162Z,7.00
2018-01-11T20:27:45.811Z,7.00
2018-01-11T20:30:14.101Z,7.00
2018-01-11T20:32:42.385Z,7.00
2018-01-11T20:35:10.655Z,7.00
2018-01-11T20:37:38.929Z,7.00
2018-01-11T20:40:07.253Z,7.00
2018-01-11T20:42:35.518Z,7.00
2018-01-11T20:45:04.574Z,7.00
2018-01-11T20:47:32.852Z,7.00
2018-01-11T20:50:01.124Z,7.00
2018-01-11T20:52:30.358Z,7.00
2018-01-11T20:54:59.409Z,7.00
2018-01-11T20:57:27.701Z,7.00
2018-01-11T20:59:56.064Z,7.00
2018-01-11T21:02:24.296Z,7.00
2018-01-11T21:04:53.451Z,7.00
2018-01-11T21:07:21.695Z,7.00
2018-01-11T21:09:50.820Z,7.00
2018-01-11T21:12:19.107Z,7.00
2018-01-11T21:14:47.372Z,7.00
2018-01-11T21:17:15.702Z,7.00
2018-01-11T21:19:43.949Z,7.00
2018-01-11T21:22:12.236Z,7.00
2018-01-11T21:24:40.474Z,7.00
2018-01-11T21:27:08.709Z,7.00
2018-01-11T21:29:37.966Z,7.00
2018-01-11T21:32:06.192Z,6.90
2018-01-11T21:34:34.467Z,7.00
2018-01-11T21:37:03.543Z,6.90
2018-01-11T21:39:31.818Z,6.90
2018-01-11T21:42:00.133Z,7.00
2018-01-11T21:44:28.361Z,6.90
2018-01-11T21:46:56.624Z,6.90
2018-01-11T21:49:25.724Z,6.90
2018-01-11T21:51:53.992Z,6.90
2018-01-11T21:54:22.277Z,6.90
2018-01-11T21:56:50.553Z,6.90
2018-01-11T21:59:18.793Z,6.80
2018-01-11T22:01:47.058Z,6.80
2018-01-11T22:04:16.070Z,6.80
2018-01-11T22:06:44.368Z,6.80
2018-01-11T22:09:12.660Z,6.80
2018-01-11T22:11:40.907Z,6.80
2018-01-11T22:14:09.223Z,6.80
2018-01-11T22:16:37.515Z,6.80
2018-01-11T22:19:05.750Z,6.80
2018-01-11T22:21:34.050Z,6.80
2018-01-11T22:24:02.342Z,6.80
2018-01-11T22:26:30.656Z,6.80
2018-01-11T22:28:58.935Z,6.80
2018-01-11T22:31:27.177Z,6.80
2018-01-11T22:33:55.421Z,6.80
2018-01-11T22:36:23.671Z,6.80
2018-01-11T22:38:51.939Z,6.90
2018-01-11T22:41:20.232Z,6.90
2018-01-11T22:43:48.505Z,6.90
2018-01-11T22:46:16.784Z,6.90
2018-01-11T22:48:45.016Z,6.90
2018-01-11T22:51:13.273Z,6.90
2018-01-11T22:53:41.569Z,6.80
2018-01-11T22:56:09.852Z,6.80
2018-01-11T22:58:38.087Z,6.80
2018-01-11T23:01:06.371Z,6.80
2018-01-11T23:03:34.619Z,6.80
2018-01-11T23:06:02.879Z,6.80
2018-01-11T23:08:31.944Z,6.80
2018-01-11T23:11:00.237Z,6.80
2018-01-11T23:13:29.278Z,6.90
2018-01-11T23:15:57.562Z,6.90
2018-01-11T23:18:25.889Z,6.90
2018-01-11T23:20:54.918Z,6.90
2018-01-11T23:23:23.235Z,6.90
2018-01-11T23:25:51.480Z,6.90
2018-01-11T23:28:19.756Z,6.90
2018-01-11T23:30:48.053Z,6.90
2018-01-11T23:33:16.275Z,6.90
2018-01-11T23:35:44.539Z,6.90
2018-01-11T23:38:13.592Z,6.90
2018-01-11T23:40:41.880Z,6.90
2018-01-11T23:43:10.122Z,6.80
2018-01-11T23:45:38.859Z,6.80
2018-01-11T23:48:07.121Z,6.80
2018-01-11T23:50:35.362Z,6.80
2018-01-11T23:53:03.653Z,6.80
2018-01-11T23:55:31.946Z,6.80
2018-01-11T23:58:00.258Z,6.80
